Time;durP1;ratioP1;P1;durP2;ratioP2;P2;SDS_P1;SDS_P2;PMS_P1;PMS_P2;Temp;Humidity;BMP_temperature;BMP_pressure;BME280_temperature;BME280_humidity;BME280_pressure;Samples;Min_cycle;Max_cycle;Signal;HPM_P1;HPM_P2
2022/11/23 00:01:37;;;;;;;23.75;11.23;;;;;;;;;;6185879;23;20044;-91
2022/11/23 00:04:05;;;;;;;21.52;11.52;;;;;;;;;;6183044;23;20261;-91
2022/11/23 00:06:31;;;;;;;23.23;12.38;;;;;;;;;;6184023;23;20064;-90
2022/11/23 00:08:57;;;;;;;22.50;12.10;;;;;;;;;;6158933;23;20016;-91
2022/11/23 00:11:24;;;;;;;25.02;11.43;;;;;;;;;;6159319;23;20012;-90
2022/11/23 00:13:50;;;;;;;20.58;12.27;;;;;;;;;;6159600;23;20015;-91
2022/11/23 00:16:20;;;;;;;26.83;13.02;;;;;;;;;;6185385;23;20036;-90
2022/11/23 00:18:46;;;;;;;25.27;12.65;;;;;;;;;;6184465;23;20067;-91
2022/11/23 00:21:14;;;;;;;25.60;12.85;;;;;;;;;;6184390;23;20005;-91
2022/11/23 00:23:40;;;;;;;25.38;11.90;;;;;;;;;;6182758;23;20754;-91
2022/11/23 00:26:07;;;;;;;29.10;14.13;;;;;;;;;;6184372;23;20009;-92
2022/11/23 00:28:38;;;;;;;27.52;13.80;;;;;;;;;;6184251;23;20804;-91
2022/11/23 00:31:05;;;;;;;24.83;12.52;;;;;;;;;;6159814;23;20147;-91
2022/11/23 00:33:31;;;;;;;28.33;12.23;;;;;;;;;;6159233;23;20008;-90
2022/11/23 00:36:05;;;;;;;27.30;12.18;;;;;;;;;;6184104;23;20009;-90
2022/11/23 00:38:31;;;;;;;22.88;12.75;;;;;;;;;;6183286;23;20429;-92
2022/11/23 00:41:17;;;;;;;22.75;12.35;;;;;;;;;;6160410;23;20055;-91
2022/11/23 00:43:43;;;;;;;26.95;12.00;;;;;;;;;;6183975;23;20005;-90
2022/11/23 00:46:22;;;;;;;24.40;12.88;;;;;;;;;;6184027;23;20467;-91
2022/11/23 00:48:50;;;;;;;25.30;12.35;;;;;;;;;;6210625;23;20005;-90
2022/11/23 00:51:18;;;;;;;23.98;12.68;;;;;;;;;;6184429;23;20079;-92
2022/11/23 00:53:44;;;;;;;28.70;14.40;;;;;;;;;;6181504;23;20000;-91
2022/11/23 00:56:10;;;;;;;29.63;13.88;;;;;;;;;;6158866;23;20016;-91
2022/11/23 00:58:44;;;;;;;26.85;12.70;;;;;;;;;;6171321;22;20039;-92
2022/11/23 01:01:18;;;;;;;25.63;12.23;;;;;;;;;;6214319;23;20012;-91
2022/11/23 01:03:45;;;;;;;29.70;14.23;;;;;;;;;;6213425;23;20008;-90
2022/11/23 01:06:15;;;;;;;25.27;13.25;;;;;;;;;;6213476;23;20019;-92
2022/11/23 01:08:41;;;;;;;28.95;13.95;;;;;;;;;;6213816;23;20526;-90
2022/11/23 01:11:09;;;;;;;29.33;13.27;;;;;;;;;;6214669;23;20004;-92
2022/11/23 01:13:36;;;;;;;25.48;12.95;;;;;;;;;;6212862;23;20038;-90
2022/11/23 01:16:02;;;;;;;26.88;13.43;;;;;;;;;;6190461;23;20043;-90
2022/11/23 01:18:28;;;;;;;29.52;14.45;;;;;;;;;;6189310;23;20398;-91
2022/11/23 01:20:54;;;;;;;23.50;12.77;;;;;;;;;;6189630;23;20464;-90
2022/11/23 01:23:20;;;;;;;34.47;13.90;;;;;;;;;;6189519;23;20440;-89
2022/11/23 01:25:48;;;;;;;25.88;13.27;;;;;;;;;;6189132;23;20361;-90
2022/11/23 01:28:14;;;;;;;25.60;12.30;;;;;;;;;;6189863;23;20012;-91
2022/11/23 01:30:40;;;;;;;28.30;13.50;;;;;;;;;;6188291;23;20400;-91
2022/11/23 01:33:06;;;;;;;30.42;13.43;;;;;;;;;;6189503;23;20020;-90
2022/11/23 01:35:32;;;;;;;26.45;12.40;;;;;;;;;;6215463;23;20004;-90
2022/11/23 01:37:58;;;;;;;29.63;13.93;;;;;;;;;;6190039;23;20041;-90
2022/11/23 01:40:24;;;;;;;28.52;14.30;;;;;;;;;;6189201;23;20461;-90
2022/11/23 01:42:55;;;;;;;26.48;11.75;;;;;;;;;;6189633;23;20016;-90
2022/11/23 01:45:39;;;;;;;29.33;12.93;;;;;;;;;;6214701;23;20458;-90
2022/11/23 01:48:09;;;;;;;25.50;12.73;;;;;;;;;;6205487;23;20012;-91
2022/11/23 01:50:36;;;;;;;27.20;13.50;;;;;;;;;;6213578;23;20050;-91
2022/11/23 01:53:02;;;;;;;26.58;14.27;;;;;;;;;;6189811;23;20492;-89
2022/11/23 01:55:28;;;;;;;29.08;12.40;;;;;;;;;;6188144;23;20008;-91
2022/11/23 01:57:55;;;;;;;28.58;12.02;;;;;;;;;;6212846;23;20095;-90
2022/11/23 02:00:28;;;;;;;32.42;11.55;;;;;;;;;;6215126;22;20555;-91
2022/11/23 02:02:56;;;;;;;31.17;13.13;;;;;;;;;;6190199;23;20514;-90
2022/11/23 02:05:25;;;;;;;26.08;12.05;;;;;;;;;;6214104;23;20008;-91
2022/11/23 02:07:51;;;;;;;28.45;11.82;;;;;;;;;;6214034;23;20038;-91
2022/11/23 02:10:18;;;;;;;27.70;12.13;;;;;;;;;;6188553;23;20042;-92
2022/11/23 02:12:44;;;;;;;19.30;10.35;;;;;;;;;;6188706;23;20008;-90
2022/11/23 02:15:10;;;;;;;23.30;11.40;;;;;;;;;;6189365;23;20009;-91
2022/11/23 02:17:36;;;;;;;31.73;9.48;;;;;;;;;;6188494;23;20424;-92
2022/11/23 02:20:10;;;;;;;16.08;9.63;;;;;;;;;;6188935;23;20329;-92
2022/11/23 02:22:50;;;;;;;14.80;6.78;;;;;;;;;;6212951;23;20083;-91
2022/11/23 02:25:31;;;;;;;23.17;10.15;;;;;;;;;;6215317;23;20015;-91
2022/11/23 02:27:57;;;;;;;25.45;10.65;;;;;;;;;;6214257;23;20004;-91
2022/11/23 02:30:24;;;;;;;19.73;7.82;;;;;;;;;;6190573;23;20087;-90
2022/11/23 02:32:51;;;;;;;28.48;10.07;;;;;;;;;;6216393;23;20023;-90
2022/11/23 02:35:17;;;;;;;23.52;10.63;;;;;;;;;;6192491;23;20134;-90
2022/11/23 02:37:44;;;;;;;19.10;9.57;;;;;;;;;;6192215;23;20004;-90
2022/11/23 02:40:16;;;;;;;19.77;8.35;;;;;;;;;;6192325;23;20264;-92
2022/11/23 02:42:43;;;;;;;21.70;11.77;;;;;;;;;;6217075;23;20430;-91
2022/11/23 02:45:21;;;;;;;27.50;10.73;;;;;;;;;;6192191;23;20139;-91
2022/11/23 02:47:48;;;;;;;25.60;10.50;;;;;;;;;;6216166;23;20053;-91
2022/11/23 02:50:15;;;;;;;27.67;9.18;;;;;;;;;;6192467;23;20205;-90
2022/11/23 02:52:41;;;;;;;22.23;8.57;;;;;;;;;;6191269;23;20016;-90
2022/11/23 02:55:07;;;;;;;26.15;10.35;;;;;;;;;;6190635;23;20004;-90
2022/11/23 02:57:34;;;;;;;16.27;8.88;;;;;;;;;;6191951;23;20444;-90
2022/11/23 03:00:00;;;;;;;21.52;10.45;;;;;;;;;;6190428;23;20020;-90
2022/11/23 03:02:26;;;;;;;29.85;10.73;;;;;;;;;;6190973;23;20467;-91
2022/11/23 03:04:52;;;;;;;25.45;7.65;;;;;;;;;;6190515;23;20278;-90
2022/11/23 03:07:18;;;;;;;20.63;9.00;;;;;;;;;;6189720;23;20498;-90
2022/11/23 03:09:44;;;;;;;22.60;9.68;;;;;;;;;;6188740;23;20142;-90
2022/11/23 03:12:10;;;;;;;22.30;10.27;;;;;;;;;;6189833;23;20502;-90
2022/11/23 03:14:37;;;;;;;20.48;9.82;;;;;;;;;;6189757;23;20008;-90
2022/11/23 03:17:04;;;;;;;19.50;7.15;;;;;;;;;;6190349;23;20008;-90
2022/11/23 03:19:30;;;;;;;24.83;10.15;;;;;;;;;;6215558;23;20012;-90
2022/11/23 03:21:56;;;;;;;21.42;9.80;;;;;;;;;;6189707;23;20095;-90
2022/11/23 03:24:25;;;;;;;27.92;10.05;;;;;;;;;;6190140;23;20016;-89
2022/11/23 03:26:51;;;;;;;13.25;8.00;;;;;;;;;;6190341;23;20009;-90
2022/11/23 03:29:17;;;;;;;19.17;8.77;;;;;;;;;;6189917;23;20399;-90
2022/11/23 03:31:43;;;;;;;18.90;8.18;;;;;;;;;;6215688;23;20011;-92
2022/11/23 03:34:10;;;;;;;18.58;9.85;;;;;;;;;;6189564;23;20086;-91
2022/11/23 03:36:36;;;;;;;21.75;10.45;;;;;;;;;;6214510;23;20031;-90
2022/11/23 03:39:02;;;;;;;24.83;10.15;;;;;;;;;;6190034;23;20294;-89
2022/11/23 03:41:28;;;;;;;21.17;9.27;;;;;;;;;;6213378;23;20034;-90
2022/11/23 03:43:54;;;;;;;22.35;10.48;;;;;;;;;;6188668;23;20105;-90
2022/11/23 03:46:20;;;;;;;19.02;8.25;;;;;;;;;;6190829;23;20012;-91
2022/11/23 03:48:46;;;;;;;21.77;9.52;;;;;;;;;;6189844;23;20095;-90
2022/11/23 03:51:13;;;;;;;27.10;9.57;;;;;;;;;;6189157;23;20015;-91
2022/11/23 03:53:39;;;;;;;30.40;10.68;;;;;;;;;;6189295;23;20031;-90
2022/11/23 03:56:05;;;;;;;27.00;10.40;;;;;;;;;;6189151;23;20012;-90
2022/11/23 03:58:31;;;;;;;26.15;10.18;;;;;;;;;;6213985;23;20421;-90
2022/11/23 04:00:57;;;;;;;26.77;10.23;;;;;;;;;;6214491;22;20352;-90
2022/11/23 04:03:23;;;;;;;28.38;10.07;;;;;;;;;;6188846;23;20008;-90
2022/11/23 04:05:49;;;;;;;34.67;10.75;;;;;;;;;;6189872;23;20463;-90
2022/11/23 04:08:15;;;;;;;35.60;10.30;;;;;;;;;;6214989;23;20038;-90
2022/11/23 04:10:41;;;;;;;23.45;9.27;;;;;;;;;;6214523;23;20593;-89
2022/11/23 04:13:07;;;;;;;27.85;10.93;;;;;;;;;;6189146;23;20005;-90
2022/11/23 04:15:33;;;;;;;30.83;11.48;;;;;;;;;;6213612;23;20447;-90
2022/11/23 04:17:59;;;;;;;35.10;12.05;;;;;;;;;;6187665;23;20008;-90
2022/11/23 04:20:26;;;;;;;33.50;10.93;;;;;;;;;;6214158;23;20827;-90
2022/11/23 04:22:52;;;;;;;25.83;10.85;;;;;;;;;;6214544;23;20015;-91
2022/11/23 04:25:18;;;;;;;22.10;8.20;;;;;;;;;;6240772;23;20000;-90
2022/11/23 04:27:45;;;;;;;24.80;10.15;;;;;;;;;;6188005;23;20012;-90
2022/11/23 04:30:11;;;;;;;33.53;11.82;;;;;;;;;;6213821;23;20454;-90
2022/11/23 04:32:37;;;;;;;37.05;13.35;;;;;;;;;;6214987;23;20004;-89
2022/11/23 04:35:03;;;;;;;32.50;12.82;;;;;;;;;;6188484;23;20030;-89
2022/11/23 04:37:29;;;;;;;31.40;12.27;;;;;;;;;;6189399;23;20463;-91
2022/11/23 04:39:55;;;;;;;31.52;10.25;;;;;;;;;;6190023;23;20062;-90
2022/11/23 04:42:21;;;;;;;42.15;12.75;;;;;;;;;;6187408;23;20348;-90
2022/11/23 04:44:47;;;;;;;36.42;12.65;;;;;;;;;;6213863;23;20035;-89
2022/11/23 04:47:14;;;;;;;37.75;13.50;;;;;;;;;;6213239;23;20008;-90
2022/11/23 04:49:40;;;;;;;37.78;14.70;;;;;;;;;;6213498;23;20094;-90
2022/11/23 04:52:06;;;;;;;32.13;13.90;;;;;;;;;;6188187;23;20386;-90
2022/11/23 04:54:32;;;;;;;33.10;13.88;;;;;;;;;;6212195;23;20318;-91
2022/11/23 04:56:58;;;;;;;47.78;13.52;;;;;;;;;;6189284;23;20020;-90
2022/11/23 04:59:24;;;;;;;42.65;15.45;;;;;;;;;;6214366;22;20019;-90
2022/11/23 05:01:51;;;;;;;35.97;14.73;;;;;;;;;;6188874;23;20008;-90
2022/11/23 05:04:18;;;;;;;41.80;16.08;;;;;;;;;;6188706;23;20012;-90
2022/11/23 05:06:44;;;;;;;35.55;12.65;;;;;;;;;;6213542;23;20004;-90
2022/11/23 05:09:10;;;;;;;45.35;13.20;;;;;;;;;;6188733;23;20048;-90
2022/11/23 05:11:36;;;;;;;45.97;16.85;;;;;;;;;;6188789;23;20095;-91
2022/11/23 05:14:02;;;;;;;38.03;13.88;;;;;;;;;;6188299;23;20391;-89
2022/11/23 05:16:28;;;;;;;36.17;14.43;;;;;;;;;;6240009;23;20079;-91
2022/11/23 05:18:54;;;;;;;35.60;13.20;;;;;;;;;;6186913;23;20101;-90
2022/11/23 05:21:20;;;;;;;42.63;16.27;;;;;;;;;;6188680;23;20036;-90
2022/11/23 05:23:47;;;;;;;44.47;16.85;;;;;;;;;;6213282;23;20083;-89
2022/11/23 05:26:13;;;;;;;40.80;15.48;;;;;;;;;;6188343;23;20111;-90
2022/11/23 05:28:39;;;;;;;27.55;11.80;;;;;;;;;;6187049;23;20035;-89
2022/11/23 05:31:05;;;;;;;42.38;14.75;;;;;;;;;;6188731;23;20100;-89
2022/11/23 05:33:31;;;;;;;40.50;16.23;;;;;;;;;;6187696;23;20425;-90
2022/11/23 05:35:57;;;;;;;38.47;15.75;;;;;;;;;;6188765;23;20087;-89
2022/11/23 05:38:23;;;;;;;36.20;14.98;;;;;;;;;;6188066;23;20012;-90
2022/11/23 05:40:56;;;;;;;47.80;16.85;;;;;;;;;;6191233;23;20392;-89
2022/11/23 05:43:22;;;;;;;50.63;16.23;;;;;;;;;;6187388;23;20472;-90
2022/11/23 05:45:48;;;;;;;37.05;16.63;;;;;;;;;;6212136;23;20018;-89
2022/11/23 05:48:14;;;;;;;44.17;18.15;;;;;;;;;;6188580;23;20437;-90
2022/11/23 05:50:40;;;;;;;48.72;17.60;;;;;;;;;;6212015;23;20055;-89
2022/11/23 05:53:07;;;;;;;36.10;15.15;;;;;;;;;;6188138;23;20008;-90
2022/11/23 05:55:33;;;;;;;48.25;19.38;;;;;;;;;;6211435;23;20008;-89
2022/11/23 05:57:59;;;;;;;45.40;19.02;;;;;;;;;;6186296;23;20057;-90
2022/11/23 06:00:32;;;;;;;57.03;19.92;;;;;;;;;;6173140;22;20033;-90
2022/11/23 06:03:01;;;;;;;42.60;16.83;;;;;;;;;;6157006;23;20021;-90
2022/11/23 06:05:28;;;;;;;54.85;17.65;;;;;;;;;;6183675;23;20336;-91
2022/11/23 06:07:54;;;;;;;38.22;15.20;;;;;;;;;;6182274;23;20036;-90
2022/11/23 06:10:20;;;;;;;40.28;14.85;;;;;;;;;;6183102;23;20013;-90
2022/11/23 06:12:48;;;;;;;39.65;16.25;;;;;;;;;;6181347;23;20436;-90
2022/11/23 06:15:21;;;;;;;43.70;15.98;;;;;;;;;;6183520;23;20023;-89
2022/11/23 06:17:47;;;;;;;42.65;15.88;;;;;;;;;;6157357;23;20012;-89
2022/11/23 06:20:13;;;;;;;34.65;14.27;;;;;;;;;;6182509;23;20040;-90
2022/11/23 06:22:39;;;;;;;44.72;17.23;;;;;;;;;;6157525;23;20016;-90
2022/11/23 06:25:05;;;;;;;39.85;15.57;;;;;;;;;;6157961;23;20012;-90
2022/11/23 06:27:31;;;;;;;33.47;13.98;;;;;;;;;;6156040;23;20013;-89
2022/11/23 06:29:57;;;;;;;37.72;15.25;;;;;;;;;;6157005;23;20019;-89
2022/11/23 06:32:24;;;;;;;21.13;7.63;;;;;;;;;;6153901;23;20016;-90
2022/11/23 06:34:50;;;;;;;42.78;15.40;;;;;;;;;;6182922;23;20040;-90
2022/11/23 06:37:16;;;;;;;37.60;16.75;;;;;;;;;;6183011;23;20503;-91
2022/11/23 06:39:42;;;;;;;35.50;11.30;;;;;;;;;;6158903;23;20067;-89
2022/11/23 06:42:08;;;;;;;36.35;14.13;;;;;;;;;;6155213;23;20016;-90
2022/11/23 06:44:34;;;;;;;31.58;12.25;;;;;;;;;;6181545;23;20044;-90
2022/11/23 06:47:00;;;;;;;35.22;14.68;;;;;;;;;;6156629;23;20500;-90
2022/11/23 06:49:27;;;;;;;28.95;12.60;;;;;;;;;;6159396;23;20070;-89
2022/11/23 06:51:53;;;;;;;27.23;10.63;;;;;;;;;;6157146;23;20320;-90
2022/11/23 06:54:19;;;;;;;44.75;13.55;;;;;;;;;;6157100;23;20074;-89
2022/11/23 06:56:45;;;;;;;30.05;13.38;;;;;;;;;;6180946;23;20354;-89
2022/11/23 06:59:12;;;;;;;36.78;15.27;;;;;;;;;;6159310;22;20019;-90
2022/11/23 07:01:38;;;;;;;37.85;13.52;;;;;;;;;;6180683;23;20047;-90
2022/11/23 07:04:04;;;;;;;27.38;13.02;;;;;;;;;;6180390;23;20345;-90
2022/11/23 07:06:30;;;;;;;36.58;13.18;;;;;;;;;;6182005;23;20012;-90
2022/11/23 07:08:56;;;;;;;35.15;12.25;;;;;;;;;;6157744;23;20013;-90
2022/11/23 07:11:23;;;;;;;31.60;11.25;;;;;;;;;;6156114;23;20075;-90
2022/11/23 07:13:49;;;;;;;29.15;11.05;;;;;;;;;;6181518;23;20004;-89
2022/11/23 07:16:15;;;;;;;23.50;9.70;;;;;;;;;;6156999;23;20004;-90
2022/11/23 07:18:41;;;;;;;23.27;9.65;;;;;;;;;;6184483;23;20035;-90
2022/11/23 07:21:07;;;;;;;33.70;10.55;;;;;;;;;;6183378;23;20043;-89
2022/11/23 07:23:37;;;;;;;29.42;10.45;;;;;;;;;;6158682;23;20457;-91
2022/11/23 07:26:03;;;;;;;24.67;9.88;;;;;;;;;;6158214;23;20120;-91
2022/11/23 07:28:29;;;;;;;28.15;8.88;;;;;;;;;;6158269;23;20334;-90
2022/11/23 07:30:55;;;;;;;27.67;9.55;;;;;;;;;;6159153;23;20016;-90
2022/11/23 07:33:21;;;;;;;28.88;11.82;;;;;;;;;;6158256;23;20460;-90
2022/11/23 07:35:47;;;;;;;21.73;6.95;;;;;;;;;;6158545;23;20008;-90
2022/11/23 07:38:13;;;;;;;20.33;8.85;;;;;;;;;;6160132;23;20019;-89
2022/11/23 07:40:39;;;;;;;30.48;9.63;;;;;;;;;;6158716;23;20041;-90
2022/11/23 07:43:06;;;;;;;25.55;9.48;;;;;;;;;;6158375;23;20067;-90
2022/11/23 07:45:33;;;;;;;20.17;6.38;;;;;;;;;;6208228;23;20295;-91
2022/11/23 07:48:07;;;;;;;20.50;7.72;;;;;;;;;;6185291;23;20622;-90
2022/11/23 07:50:33;;;;;;;26.45;8.68;;;;;;;;;;6207372;23;20027;-90
2022/11/23 07:53:01;;;;;;;31.90;10.27;;;;;;;;;;6158052;23;20012;-89
2022/11/23 07:55:29;;;;;;;24.52;7.00;;;;;;;;;;6182084;23;20008;-89
2022/11/23 07:57:56;;;;;;;18.98;5.65;;;;;;;;;;6157960;23;20008;-91
2022/11/23 08:00:28;;;;;;;28.63;7.88;;;;;;;;;;6218266;22;20043;-91
2022/11/23 08:02:56;;;;;;;15.95;5.47;;;;;;;;;;6187642;23;20019;-91
2022/11/23 08:05:22;;;;;;;21.23;7.00;;;;;;;;;;6214222;23;20035;-90
2022/11/23 08:07:48;;;;;;;23.65;7.80;;;;;;;;;;6188034;23;20074;-89
2022/11/23 08:10:14;;;;;;;22.52;7.85;;;;;;;;;;6189102;23;20317;-91
2022/11/23 08:12:41;;;;;;;24.92;8.45;;;;;;;;;;6188210;23;20008;-90
2022/11/23 08:15:07;;;;;;;16.85;7.00;;;;;;;;;;6190176;23;20012;-90
2022/11/23 08:17:33;;;;;;;20.45;7.43;;;;;;;;;;6212572;23;20018;-90
2022/11/23 08:19:59;;;;;;;16.35;6.47;;;;;;;;;;6188187;23;20348;-89
2022/11/23 08:22:26;;;;;;;19.17;6.55;;;;;;;;;;6187285;23;20043;-90
2022/11/23 08:24:52;;;;;;;19.52;5.68;;;;;;;;;;6187734;23;20009;-91
2022/11/23 08:27:18;;;;;;;16.30;5.50;;;;;;;;;;6186631;23;20015;-90
2022/11/23 08:29:44;;;;;;;14.77;6.25;;;;;;;;;;6187712;23;20012;-92
2022/11/23 08:32:11;;;;;;;23.52;6.38;;;;;;;;;;6187705;23;20032;-90
2022/11/23 08:34:37;;;;;;;21.75;6.32;;;;;;;;;;6189839;23;20633;-90
2022/11/23 08:37:03;;;;;;;21.88;6.10;;;;;;;;;;6189412;23;20015;-92
2022/11/23 08:39:29;;;;;;;21.35;5.68;;;;;;;;;;6189659;23;20015;-91
2022/11/23 08:41:55;;;;;;;19.23;6.55;;;;;;;;;;6187597;23;20012;-89
2022/11/23 08:44:21;;;;;;;13.50;5.13;;;;;;;;;;6187885;23;20016;-92
2022/11/23 08:46:47;;;;;;;19.52;7.03;;;;;;;;;;6187692;23;20388;-90
2022/11/23 08:49:13;;;;;;;14.27;5.93;;;;;;;;;;6189099;23;20035;-91
2022/11/23 08:51:39;;;;;;;18.95;6.88;;;;;;;;;;6189063;23;20309;-90
2022/11/23 08:54:05;;;;;;;18.25;6.03;;;;;;;;;;6188155;23;20054;-90
2022/11/23 08:56:31;;;;;;;19.10;5.90;;;;;;;;;;6212153;23;20470;-90
2022/11/23 08:58:57;;;;;;;18.75;5.45;;;;;;;;;;6189215;23;20106;-91
2022/11/23 09:01:23;;;;;;;12.55;5.18;;;;;;;;;;6186935;23;20028;-90
2022/11/23 09:03:49;;;;;;;18.67;6.05;;;;;;;;;;6188215;23;20304;-90
2022/11/23 09:06:15;;;;;;;11.85;4.22;;;;;;;;;;6213128;23;20008;-90
2022/11/23 09:08:42;;;;;;;16.70;5.18;;;;;;;;;;6187676;23;20040;-90
2022/11/23 09:11:09;;;;;;;22.98;6.18;;;;;;;;;;6210899;23;20350;-91
2022/11/23 09:13:36;;;;;;;15.70;5.35;;;;;;;;;;6211772;23;20004;-90
2022/11/23 09:16:03;;;;;;;11.05;4.78;;;;;;;;;;6186946;23;20035;-90
2022/11/23 09:18:29;;;;;;;16.17;5.18;;;;;;;;;;6213373;23;20015;-90
2022/11/23 09:20:56;;;;;;;14.02;5.63;;;;;;;;;;6186967;23;20008;-90
2022/11/23 09:23:22;;;;;;;12.68;4.00;;;;;;;;;;6186912;23;20584;-90
2022/11/23 09:25:49;;;;;;;17.48;5.22;;;;;;;;;;6185642;23;20518;-90
2022/11/23 09:28:23;;;;;;;22.75;5.85;;;;;;;;;;6212036;23;20512;-90
2022/11/23 09:30:49;;;;;;;11.95;4.20;;;;;;;;;;6212502;23;20016;-91
2022/11/23 09:33:15;;;;;;;7.97;4.50;;;;;;;;;;6187613;23;20012;-90
2022/11/23 09:35:41;;;;;;;16.75;4.47;;;;;;;;;;6187932;23;20015;-90
2022/11/23 09:38:07;;;;;;;19.65;6.63;;;;;;;;;;6187736;23;20008;-91
2022/11/23 09:40:38;;;;;;;17.67;4.78;;;;;;;;;;6211752;23;20435;-90
2022/11/23 09:43:09;;;;;;;12.45;5.05;;;;;;;;;;6211574;23;20395;-91
2022/11/23 09:45:38;;;;;;;19.40;5.25;;;;;;;;;;6213575;23;20016;-90
2022/11/23 09:48:20;;;;;;;19.90;5.13;;;;;;;;;;6213402;23;20038;-90
2022/11/23 09:50:52;;;;;;;12.00;4.30;;;;;;;;;;6214297;23;20008;-91
2022/11/23 09:53:38;;;;;;;12.07;4.25;;;;;;;;;;6212465;23;20073;-91
2022/11/23 09:56:04;;;;;;;14.98;4.78;;;;;;;;;;6190825;23;20008;-90
2022/11/23 09:58:37;;;;;;;18.73;4.40;;;;;;;;;;6184141;23;20114;-90
2022/11/23 10:01:11;;;;;;;12.73;3.13;;;;;;;;;;6213699;22;20024;-89
2022/11/23 10:03:38;;;;;;;15.05;4.05;;;;;;;;;;6212564;23;20338;-90
2022/11/23 10:06:22;;;;;;;14.77;4.13;;;;;;;;;;6212394;23;20012;-90
2022/11/23 10:08:58;;;;;;;20.15;4.82;;;;;;;;;;6213328;23;20483;-91
2022/11/23 10:11:49;;;;;;;12.65;4.45;;;;;;;;;;6212116;23;20036;-90
2022/11/23 10:14:27;;;;;;;14.35;4.45;;;;;;;;;;6212683;23;20235;-90
2022/11/23 10:16:56;;;;;;;15.02;4.80;;;;;;;;;;6213285;23;20035;-90
2022/11/23 10:19:25;;;;;;;11.25;4.13;;;;;;;;;;6212493;23;20328;-90
2022/11/23 10:21:58;;;;;;;11.57;4.20;;;;;;;;;;6214068;23;20004;-90
2022/11/23 10:24:30;;;;;;;24.90;4.45;;;;;;;;;;6212810;23;20096;-89
2022/11/23 10:26:57;;;;;;;18.38;3.78;;;;;;;;;;6210991;23;20602;-90
2022/11/23 10:29:30;;;;;;;9.10;3.75;;;;;;;;;;6213342;23;20417;-90
2022/11/23 10:31:57;;;;;;;15.48;4.18;;;;;;;;;;6212020;23;20015;-89
2022/11/23 10:34:29;;;;;;;16.00;3.03;;;;;;;;;;6187709;23;20479;-90
2022/11/23 10:36:56;;;;;;;17.83;4.18;;;;;;;;;;6212486;23;20008;-90
2022/11/23 10:39:23;;;;;;;20.98;4.60;;;;;;;;;;6187983;23;20348;-91
2022/11/23 10:41:51;;;;;;;17.88;4.15;;;;;;;;;;6212174;23;20091;-90
2022/11/23 10:44:17;;;;;;;8.07;2.42;;;;;;;;;;6213233;23;20086;-91
2022/11/23 10:46:44;;;;;;;16.85;4.32;;;;;;;;;;6212482;23;20391;-90
2022/11/23 10:49:16;;;;;;;14.57;4.70;;;;;;;;;;6213704;23;20012;-90
2022/11/23 10:51:53;;;;;;;17.45;4.07;;;;;;;;;;6213916;23;20079;-90
2022/11/23 10:54:23;;;;;;;16.40;4.15;;;;;;;;;;6214751;23;20533;-90
2022/11/23 10:56:50;;;;;;;19.15;4.38;;;;;;;;;;6214702;23;20011;-90
2022/11/23 10:59:30;;;;;;;13.50;3.88;;;;;;;;;;6215644;23;20008;-91
2022/11/23 11:02:00;;;;;;;14.32;3.70;;;;;;;;;;6215230;22;20109;-91
2022/11/23 11:04:26;;;;;;;19.45;4.53;;;;;;;;;;6190603;23;20031;-91
2022/11/23 11:07:09;;;;;;;17.00;3.60;;;;;;;;;;6214803;23;20019;-90
2022/11/23 11:09:35;;;;;;;8.68;3.30;;;;;;;;;;6214809;23;20019;-91
2022/11/23 11:12:01;;;;;;;22.65;4.47;;;;;;;;;;6189519;23;20004;-90
2022/11/23 11:14:27;;;;;;;12.57;3.58;;;;;;;;;;6190298;23;20436;-90
2022/11/23 11:16:55;;;;;;;17.88;3.90;;;;;;;;;;6189749;23;20012;-90
2022/11/23 11:19:29;;;;;;;16.23;3.72;;;;;;;;;;6214933;23;20004;-90
2022/11/23 11:21:56;;;;;;;12.15;4.03;;;;;;;;;;6215510;23;20016;-90
2022/11/23 11:24:28;;;;;;;12.70;3.72;;;;;;;;;;6214617;23;20503;-90
2022/11/23 11:26:59;;;;;;;11.90;3.15;;;;;;;;;;6214420;23;20441;-90
2022/11/23 11:29:34;;;;;;;21.85;3.45;;;;;;;;;;6214351;23;20008;-91
2022/11/23 11:32:03;;;;;;;16.53;3.07;;;;;;;;;;6214312;23;20031;-90
2022/11/23 11:34:32;;;;;;;10.30;4.30;;;;;;;;;;6214582;23;20246;-91
2022/11/23 11:37:02;;;;;;;16.52;3.65;;;;;;;;;;6215224;23;20485;-90
2022/11/23 11:39:37;;;;;;;13.52;3.40;;;;;;;;;;6215348;23;20008;-90
2022/11/23 11:42:05;;;;;;;16.20;4.00;;;;;;;;;;6213576;23;20008;-90
2022/11/23 11:44:32;;;;;;;7.88;3.33;;;;;;;;;;6215360;23;20008;-91
2022/11/23 11:47:01;;;;;;;8.85;2.42;;;;;;;;;;6214849;23;20019;-90
2022/11/23 11:49:37;;;;;;;17.30;2.65;;;;;;;;;;6215705;23;20008;-90
2022/11/23 11:52:03;;;;;;;;;;;;;;;;;;6214184;23;20265;-92
2022/11/23 11:54:32;;;;;;;8.95;2.10;;;;;;;;;;6213356;23;19923;-91
2022/11/23 11:57:18;;;;;;;13.52;2.45;;;;;;;;;;6214202;23;20031;-91
2022/11/23 11:59:46;;;;;;;9.15;1.77;;;;;;;;;;6214084;23;20467;-91
2022/11/23 12:02:25;;;;;;;13.98;3.30;;;;;;;;;;6214913;22;20464;-91
2022/11/23 12:04:54;;;;;;;19.80;3.00;;;;;;;;;;6215055;23;20111;-91
2022/11/23 12:07:39;;;;;;;23.73;4.05;;;;;;;;;;6215498;23;20004;-91
2022/11/23 12:10:25;;;;;;;9.80;3.17;;;;;;;;;;6216089;23;20344;-90
2022/11/23 12:12:51;;;;;;;14.10;3.60;;;;;;;;;;6194233;23;20004;-90
2022/11/23 12:15:24;;;;;;;8.88;2.33;;;;;;;;;;6191784;23;20008;-90
2022/11/23 12:17:53;;;;;;;14.27;4.45;;;;;;;;;;6217195;23;20337;-91
2022/11/23 12:20:19;;;;;;;6.95;3.40;;;;;;;;;;6218841;23;20450;-90
2022/11/23 12:23:04;;;;;;;11.68;3.30;;;;;;;;;;6217441;23;20333;-90
2022/11/23 12:25:33;;;;;;;17.55;3.38;;;;;;;;;;6215335;23;20074;-91
2022/11/23 12:27:59;;;;;;;10.95;2.65;;;;;;;;;;6214237;23;20007;-90
2022/11/23 12:30:40;;;;;;;13.50;3.90;;;;;;;;;;6213996;23;20004;-90
2022/11/23 12:33:06;;;;;;;10.32;2.78;;;;;;;;;;6218545;23;20000;-91
2022/11/23 12:35:32;;;;;;;11.68;3.08;;;;;;;;;;6214923;23;20044;-90
2022/11/23 12:38:17;;;;;;;10.68;2.78;;;;;;;;;;6218144;23;20004;-91
2022/11/23 12:40:50;;;;;;;17.00;2.15;;;;;;;;;;6214330;23;20004;-92
2022/11/23 12:43:19;;;;;;;13.00;2.85;;;;;;;;;;6215661;23;20103;-91
2022/11/23 12:45:48;;;;;;;13.07;2.83;;;;;;;;;;6214977;23;19996;-90
2022/11/23 12:48:23;;;;;;;9.45;1.95;;;;;;;;;;6210483;23;20018;-91
2022/11/23 12:50:53;;;;;;;10.35;2.83;;;;;;;;;;6215587;23;20412;-91
2022/11/23 12:53:30;;;;;;;15.55;3.10;;;;;;;;;;6215549;23;20000;-92
2022/11/23 12:56:02;;;;;;;7.18;2.28;;;;;;;;;;6215066;23;20011;-91
2022/11/23 12:58:29;;;;;;;11.23;1.70;;;;;;;;;;6214237;23;20039;-91
2022/11/23 13:00:58;;;;;;;10.30;2.35;;;;;;;;;;6190935;22;20034;-91
2022/11/23 13:03:24;;;;;;;8.95;2.38;;;;;;;;;;6213788;23;20025;-91
2022/11/23 13:05:53;;;;;;;10.35;2.20;;;;;;;;;;6214654;23;20012;-92
2022/11/23 13:08:29;;;;;;;5.93;1.77;;;;;;;;;;6213945;23;20387;-92
2022/11/23 13:11:12;;;;;;;14.05;2.40;;;;;;;;;;6214710;23;20345;-91
2022/11/23 13:13:48;;;;;;;15.10;2.88;;;;;;;;;;6214284;23;20440;-91
2022/11/23 13:16:26;;;;;;;5.93;1.98;;;;;;;;;;6213304;23;20031;-92
2022/11/23 13:19:00;;;;;;;6.90;1.80;;;;;;;;;;6214383;23;20011;-93
2022/11/23 13:21:37;;;;;;;12.18;2.35;;;;;;;;;;6214344;23;20014;-92
2022/11/23 13:24:03;;;;;;;8.00;2.55;;;;;;;;;;6213614;23;20516;-90
2022/11/23 13:26:32;;;;;;;5.63;1.60;;;;;;;;;;6214180;23;20031;-91
2022/11/23 13:29:00;;;;;;;7.82;1.80;;;;;;;;;;6214227;23;20095;-91
2022/11/23 13:31:30;;;;;;;5.03;2.00;;;;;;;;;;6214484;23;20008;-91
2022/11/23 13:33:59;;;;;;;14.65;2.55;;;;;;;;;;6213985;23;20325;-91
2022/11/23 13:36:42;;;;;;;11.18;2.65;;;;;;;;;;6213723;23;20348;-92
2022/11/23 13:39:28;;;;;;;12.77;2.35;;;;;;;;;;6212172;23;20074;-91
2022/11/23 13:41:54;;;;;;;10.57;1.90;;;;;;;;;;6212796;23;20019;-94
2022/11/23 13:44:22;;;;;;;8.68;1.83;;;;;;;;;;6213566;23;20431;-95
2022/11/23 13:47:00;;;;;;;10.00;1.85;;;;;;;;;;6214658;23;20076;-95
2022/11/23 13:49:45;;;;;;;6.70;1.77;;;;;;;;;;6214879;23;20089;-92
2022/11/23 13:52:20;;;;;;;11.25;3.03;;;;;;;;;;6240887;23;20000;-91
2022/11/23 13:55:11;;;;;;;8.82;1.63;;;;;;;;;;6213760;23;20440;-92
2022/11/23 13:57:41;;;;;;;10.85;3.03;;;;;;;;;;6213807;23;20030;-92
2022/11/23 14:00:26;;;;;;;7.90;2.15;;;;;;;;;;6214067;23;20012;-92
2022/11/23 14:03:12;;;;;;;13.38;2.03;;;;;;;;;;6215225;22;20016;-92
2022/11/23 14:05:58;;;;;;;9.82;2.40;;;;;;;;;;6214800;23;20039;-96
2022/11/23 14:08:24;;;;;;;14.52;2.38;;;;;;;;;;6216222;23;20019;-96
2022/11/23 14:10:50;;;;;;;8.93;1.90;;;;;;;;;;6217237;23;20078;-95
2022/11/23 14:13:31;;;;;;;9.65;1.98;;;;;;;;;;6190348;23;20043;-96
2022/11/23 14:15:59;;;;;;;15.32;1.73;;;;;;;;;;6216563;23;20008;-96
2022/11/23 14:18:46;;;;;;;5.75;1.75;;;;;;;;;;6216851;23;20008;-95
2022/11/23 14:21:21;;;;;;;11.38;1.80;;;;;;;;;;6216007;23;20050;-96
2022/11/23 14:23:47;;;;;;;9.70;1.40;;;;;;;;;;6216570;23;20047;-95
2022/11/23 14:26:22;;;;;;;9.88;1.60;;;;;;;;;;6219150;23;20004;-94
2022/11/23 14:28:48;;;;;;;13.93;1.80;;;;;;;;;;6218787;23;20004;-94
2022/11/23 14:31:33;;;;;;;6.45;1.80;;;;;;;;;;6218766;23;20239;-95
2022/11/23 14:34:02;;;;;;;5.25;1.58;;;;;;;;;;6219932;23;20000;-95
2022/11/23 14:36:46;;;;;;;9.07;1.63;;;;;;;;;;6220041;23;20519;-94